sensor_id;sensor_type;location;lat;lon;timestamp;pressure;altitude;pressure_sealevel;temperature;humidity
64602;BME280;51013;42.630;23.192;2023-01-27T00:00:38;91403.03;;;-1.29;97.33
64602;BME280;51013;42.630;23.192;2023-01-27T00:03:05;91402.19;;;-1.10;97.11
64602;BME280;51013;42.630;23.192;2023-01-27T00:05:32;91398.75;;;-1.06;96.71
64602;BME280;51013;42.630;23.192;2023-01-27T00:07:59;91391.19;;;-1.02;96.51
64602;BME280;51013;42.630;23.192;2023-01-27T00:10:26;91390.16;;;-1.01;95.78
64602;BME280;51013;42.630;23.192;2023-01-27T00:12:52;91396.84;;;-1.00;95.50
64602;BME280;51013;42.630;23.192;2023-01-27T00:15:38;91379.72;;;-0.96;95.53
64602;BME280;51013;42.630;23.192;2023-01-27T00:18:05;91360.19;;;-1.11;95.38
64602;BME280;51013;42.630;23.192;2023-01-27T00:20:32;91364.84;;;-0.99;95.08
64602;BME280;51013;42.630;23.192;2023-01-27T00:23:19;91380.00;;;-0.97;94.68
64602;BME280;51013;42.630;23.192;2023-01-27T00:26:05;91362.75;;;-0.97;94.25
64602;BME280;51013;42.630;23.192;2023-01-27T00:28:33;91350.03;;;-0.93;94.91
64602;BME280;51013;42.630;23.192;2023-01-27T00:31:01;91363.38;;;-0.91;94.76
64602;BME280;51013;42.630;23.192;2023-01-27T00:33:28;91364.84;;;-0.85;94.52
64602;BME280;51013;42.630;23.192;2023-01-27T00:35:59;91342.88;;;-0.96;94.44
64602;BME280;51013;42.630;23.192;2023-01-27T00:38:27;91355.75;;;-0.83;94.21
64602;BME280;51013;42.630;23.192;2023-01-27T00:40:54;91355.47;;;-0.81;93.79
64602;BME280;51013;42.630;23.192;2023-01-27T00:43:38;91364.94;;;-0.90;93.63
64602;BME280;51013;42.630;23.192;2023-01-27T00:46:07;91373.13;;;-0.88;93.18
64602;BME280;51013;42.630;23.192;2023-01-27T00:48:34;91369.53;;;-0.87;93.88
64602;BME280;51013;42.630;23.192;2023-01-27T00:51:01;91371.53;;;-1.12;94.47
64602;BME280;51013;42.630;23.192;2023-01-27T00:53:27;91369.63;;;-1.06;94.78
64602;BME280;51013;42.630;23.192;2023-01-27T00:55:54;91358.28;;;-1.05;94.85
64602;BME280;51013;42.630;23.192;2023-01-27T00:58:22;91371.53;;;-0.98;94.81
64602;BME280;51013;42.630;23.192;2023-01-27T01:00:51;91363.03;;;-0.98;94.76
64602;BME280;51013;42.630;23.192;2023-01-27T01:03:20;91360.75;;;-1.00;95.14
64602;BME280;51013;42.630;23.192;2023-01-27T01:05:46;91359.38;;;-0.97;94.32
64602;BME280;51013;42.630;23.192;2023-01-27T01:08:13;91368.66;;;-0.83;94.26
64602;BME280;51013;42.630;23.192;2023-01-27T01:10:40;91370.56;;;-0.88;94.34
64602;BME280;51013;42.630;23.192;2023-01-27T01:13:09;91374.97;;;-0.89;94.28
64602;BME280;51013;42.630;23.192;2023-01-27T01:15:38;91382.03;;;-1.08;95.56
64602;BME280;51013;42.630;23.192;2023-01-27T01:18:06;91379.38;;;-1.17;96.57
64602;BME280;51013;42.630;23.192;2023-01-27T01:20:36;91368.97;;;-1.12;96.73
64602;BME280;51013;42.630;23.192;2023-01-27T01:23:04;91353.53;;;-1.26;96.73
64602;BME280;51013;42.630;23.192;2023-01-27T01:25:31;91378.44;;;-1.07;96.70
64602;BME280;51013;42.630;23.192;2023-01-27T01:27:57;91377.84;;;-1.18;97.52
64602;BME280;51013;42.630;23.192;2023-01-27T01:30:24;91388.53;;;-1.11;97.67
64602;BME280;51013;42.630;23.192;2023-01-27T01:32:51;91397.63;;;-1.13;98.04
64602;BME280;51013;42.630;23.192;2023-01-27T01:35:18;91396.63;;;-1.04;98.50
64602;BME280;51013;42.630;23.192;2023-01-27T01:37:47;91392.47;;;-1.13;98.51
64602;BME280;51013;42.630;23.192;2023-01-27T01:40:14;91401.63;;;-1.07;98.06
64602;BME280;51013;42.630;23.192;2023-01-27T01:42:55;91401.91;;;-0.95;98.36
64602;BME280;51013;42.630;23.192;2023-01-27T01:45:50;91396.34;;;-0.88;98.11
64602;BME280;51013;42.630;23.192;2023-01-27T01:48:26;91345.28;;;-1.14;97.68
64602;BME280;51013;42.630;23.192;2023-01-27T01:50:56;91383.38;;;-0.83;97.33
64602;BME280;51013;42.630;23.192;2023-01-27T01:53:30;91382.00;;;-0.81;97.18
64602;BME280;51013;42.630;23.192;2023-01-27T01:56:04;91368.44;;;-0.72;96.80
64602;BME280;51013;42.630;23.192;2023-01-27T01:58:33;91360.28;;;-0.66;96.67
64602;BME280;51013;42.630;23.192;2023-01-27T02:01:02;91333.41;;;-0.87;96.43
64602;BME280;51013;42.630;23.192;2023-01-27T02:03:29;91362.19;;;-0.57;95.41
64602;BME280;51013;42.630;23.192;2023-01-27T02:05:56;91353.03;;;-0.64;95.11
64602;BME280;51013;42.630;23.192;2023-01-27T02:08:27;91349.56;;;-0.59;95.01
64602;BME280;51013;42.630;23.192;2023-01-27T02:10:55;91342.41;;;-0.62;95.15
64602;BME280;51013;42.630;23.192;2023-01-27T02:13:22;91343.66;;;-0.59;95.19
64602;BME280;51013;42.630;23.192;2023-01-27T02:15:51;91338.50;;;-0.59;95.23
64602;BME280;51013;42.630;23.192;2023-01-27T02:18:18;91335.34;;;-0.56;94.79
64602;BME280;51013;42.630;23.192;2023-01-27T02:20:47;91322.44;;;-0.56;94.77
64602;BME280;51013;42.630;23.192;2023-01-27T02:23:23;91310.41;;;-0.61;94.96
64602;BME280;51013;42.630;23.192;2023-01-27T02:25:56;91317.91;;;-0.51;94.44
64602;BME280;51013;42.630;23.192;2023-01-27T02:28:26;91287.72;;;-0.73;94.86
64602;BME280;51013;42.630;23.192;2023-01-27T02:30:53;91311.53;;;-0.53;94.51
64602;BME280;51013;42.630;23.192;2023-01-27T02:33:20;91318.03;;;-0.56;94.81
64602;BME280;51013;42.630;23.192;2023-01-27T02:35:51;91320.25;;;-0.63;95.24
64602;BME280;51013;42.630;23.192;2023-01-27T02:38:24;91314.09;;;-0.76;95.47
64602;BME280;51013;42.630;23.192;2023-01-27T02:40:56;91311.28;;;-0.66;95.48
64602;BME280;51013;42.630;23.192;2023-01-27T02:43:25;91296.28;;;-0.64;95.18
64602;BME280;51013;42.630;23.192;2023-01-27T02:45:52;91317.63;;;-0.49;95.05
64602;BME280;51013;42.630;23.192;2023-01-27T02:48:19;91315.44;;;-0.78;95.57
64602;BME280;51013;42.630;23.192;2023-01-27T02:50:45;91316.56;;;-0.71;95.69
64602;BME280;51013;42.630;23.192;2023-01-27T02:53:15;91317.09;;;-0.60;95.24
64602;BME280;51013;42.630;23.192;2023-01-27T02:55:44;91324.53;;;-0.58;95.16
64602;BME280;51013;42.630;23.192;2023-01-27T02:58:14;91319.25;;;-0.53;95.04
64602;BME280;51013;42.630;23.192;2023-01-27T03:00:41;91312.47;;;-0.49;95.03
64602;BME280;51013;42.630;23.192;2023-01-27T03:03:09;91315.56;;;-0.61;95.30
64602;BME280;51013;42.630;23.192;2023-01-27T03:05:36;91315.41;;;-0.65;95.27
64602;BME280;51013;42.630;23.192;2023-01-27T03:08:02;91322.13;;;-0.55;95.76
64602;BME280;51013;42.630;23.192;2023-01-27T03:10:29;91321.59;;;-0.43;95.86
64602;BME280;51013;42.630;23.192;2023-01-27T03:12:56;91297.34;;;-0.65;95.35
64602;BME280;51013;42.630;23.192;2023-01-27T03:15:24;91313.69;;;-0.47;95.29
64602;BME280;51013;42.630;23.192;2023-01-27T03:18:10;91303.38;;;-0.47;95.24
64602;BME280;51013;42.630;23.192;2023-01-27T03:20:41;91268.97;;;-0.65;95.08
64602;BME280;51013;42.630;23.192;2023-01-27T03:23:11;91294.94;;;-0.38;95.33
64602;BME280;51013;42.630;23.192;2023-01-27T03:25:41;91291.75;;;-0.35;95.30
64602;BME280;51013;42.630;23.192;2023-01-27T03:28:09;91289.81;;;-0.30;95.28
64602;BME280;51013;42.630;23.192;2023-01-27T03:30:37;91283.78;;;-0.25;94.79
64602;BME280;51013;42.630;23.192;2023-01-27T03:33:04;91279.97;;;-0.28;94.71
64602;BME280;51013;42.630;23.192;2023-01-27T03:35:32;91292.88;;;-0.28;94.41
64602;BME280;51013;42.630;23.192;2023-01-27T03:38:03;91284.84;;;-0.26;94.78
64602;BME280;51013;42.630;23.192;2023-01-27T03:40:47;91278.63;;;-0.48;94.97
64602;BME280;51013;42.630;23.192;2023-01-27T03:43:31;91275.75;;;-0.46;95.63
64602;BME280;51013;42.630;23.192;2023-01-27T03:46:16;91272.19;;;-0.36;95.11
64602;BME280;51013;42.630;23.192;2023-01-27T03:48:46;91271.56;;;-0.33;94.67
64602;BME280;51013;42.630;23.192;2023-01-27T03:51:14;91251.41;;;-0.31;95.03
64602;BME280;51013;42.630;23.192;2023-01-27T03:53:41;91239.94;;;-0.48;95.11
64602;BME280;51013;42.630;23.192;2023-01-27T03:56:09;91255.09;;;-0.24;94.87
64602;BME280;51013;42.630;23.192;2023-01-27T03:58:36;91244.88;;;-0.29;94.85
64602;BME280;51013;42.630;23.192;2023-01-27T04:01:05;91246.88;;;-0.26;94.92
64602;BME280;51013;42.630;23.192;2023-01-27T04:03:34;91269.81;;;-0.24;94.81
64602;BME280;51013;42.630;23.192;2023-01-27T04:06:20;91280.06;;;-0.33;94.27
64602;BME280;51013;42.630;23.192;2023-01-27T04:09:06;91269.81;;;-0.47;95.31
64602;BME280;51013;42.630;23.192;2023-01-27T04:11:33;91240.97;;;-0.71;95.10
64602;BME280;51013;42.630;23.192;2023-01-27T04:14:17;91277.78;;;-0.79;95.93
64602;BME280;51013;42.630;23.192;2023-01-27T04:16:44;91270.75;;;-0.88;96.59
64602;BME280;51013;42.630;23.192;2023-01-27T04:19:13;91299.13;;;-0.88;96.74
64602;BME280;51013;42.630;23.192;2023-01-27T04:21:40;91310.88;;;-0.95;97.18
64602;BME280;51013;42.630;23.192;2023-01-27T04:24:11;91316.25;;;-1.06;98.08
64602;BME280;51013;42.630;23.192;2023-01-27T04:26:49;91316.81;;;-0.95;98.17
64602;BME280;51013;42.630;23.192;2023-01-27T04:29:19;91327.75;;;-0.89;97.83
64602;BME280;51013;42.630;23.192;2023-01-27T04:31:46;91332.91;;;-0.89;98.06
64602;BME280;51013;42.630;23.192;2023-01-27T04:34:15;91327.41;;;-0.96;98.90
64602;BME280;51013;42.630;23.192;2023-01-27T04:36:45;91333.06;;;-1.08;99.35
64602;BME280;51013;42.630;23.192;2023-01-27T04:39:14;91333.94;;;-1.13;99.84
64602;BME280;51013;42.630;23.192;2023-01-27T04:41:44;91346.28;;;-1.24;100.00
64602;BME280;51013;42.630;23.192;2023-01-27T04:44:10;91362.22;;;-1.22;100.00
64602;BME280;51013;42.630;23.192;2023-01-27T04:46:39;91364.00;;;-1.22;100.00
64602;BME280;51013;42.630;23.192;2023-01-27T04:49:06;91357.50;;;-1.06;100.00
64602;BME280;51013;42.630;23.192;2023-01-27T04:51:35;91355.38;;;-1.04;100.00
64602;BME280;51013;42.630;23.192;2023-01-27T04:54:01;91347.38;;;-1.02;100.00
64602;BME280;51013;42.630;23.192;2023-01-27T04:56:31;91335.84;;;-1.05;100.00
64602;BME280;51013;42.630;23.192;2023-01-27T04:58:59;91346.50;;;-0.97;99.96
64602;BME280;51013;42.630;23.192;2023-01-27T05:01:27;91297.13;;;-1.27;99.79
64602;BME280;51013;42.630;23.192;2023-01-27T05:03:53;91338.75;;;-0.97;99.90
64602;BME280;51013;42.630;23.192;2023-01-27T05:06:20;91340.78;;;-0.94;99.97
64602;BME280;51013;42.630;23.192;2023-01-27T05:08:49;91343.06;;;-0.93;99.16
64602;BME280;51013;42.630;23.192;2023-01-27T05:11:16;91342.28;;;-0.93;98.79
64602;BME280;51013;42.630;23.192;2023-01-27T05:13:44;91336.75;;;-0.87;99.41
64602;BME280;51013;42.630;23.192;2023-01-27T05:16:13;91333.59;;;-0.84;98.63
64602;BME280;51013;42.630;23.192;2023-01-27T05:18:44;91337.50;;;-0.86;98.68
64602;BME280;51013;42.630;23.192;2023-01-27T05:21:14;91337.41;;;-0.81;98.45
64602;BME280;51013;42.630;23.192;2023-01-27T05:23:43;91331.66;;;-0.78;98.38
64602;BME280;51013;42.630;23.192;2023-01-27T05:26:14;91337.47;;;-0.72;98.65
64602;BME280;51013;42.630;23.192;2023-01-27T05:28:44;91329.16;;;-0.69;98.40
64602;BME280;51013;42.630;23.192;2023-01-27T05:31:15;91339.00;;;-0.71;98.21
64602;BME280;51013;42.630;23.192;2023-01-27T05:33:44;91345.75;;;-0.62;98.13
64602;BME280;51013;42.630;23.192;2023-01-27T05:36:14;91334.03;;;-0.68;98.06
64602;BME280;51013;42.630;23.192;2023-01-27T05:38:43;91323.19;;;-0.56;96.62
64602;BME280;51013;42.630;23.192;2023-01-27T05:41:14;91323.06;;;-0.51;96.51
64602;BME280;51013;42.630;23.192;2023-01-27T05:43:42;91318.53;;;-0.68;96.71
64602;BME280;51013;42.630;23.192;2023-01-27T05:46:11;91317.19;;;-0.65;97.00
64602;BME280;51013;42.630;23.192;2023-01-27T05:48:41;91311.69;;;-0.72;97.40
64602;BME280;51013;42.630;23.192;2023-01-27T05:51:10;91296.81;;;-0.89;97.72
64602;BME280;51013;42.630;23.192;2023-01-27T05:53:39;91320.59;;;-0.78;97.48
64602;BME280;51013;42.630;23.192;2023-01-27T05:56:07;91324.81;;;-0.83;97.50
64602;BME280;51013;42.630;23.192;2023-01-27T05:58:37;91333.59;;;-0.97;98.24
64602;BME280;51013;42.630;23.192;2023-01-27T06:01:07;91321.09;;;-0.90;98.53
64602;BME280;51013;42.630;23.192;2023-01-27T06:03:34;91329.69;;;-0.81;98.06
64602;BME280;51013;42.630;23.192;2023-01-27T06:06:01;91333.84;;;-0.71;97.90
64602;BME280;51013;42.630;23.192;2023-01-27T06:08:29;91345.88;;;-0.67;97.22
64602;BME280;51013;42.630;23.192;2023-01-27T06:10:57;91340.88;;;-0.63;97.48
64602;BME280;51013;42.630;23.192;2023-01-27T06:13:24;91333.84;;;-0.71;97.07
64602;BME280;51013;42.630;23.192;2023-01-27T06:15:52;91335.63;;;-0.58;96.75
64602;BME280;51013;42.630;23.192;2023-01-27T06:18:20;91339.66;;;-0.43;96.54
64602;BME280;51013;42.630;23.192;2023-01-27T06:20:47;91336.84;;;-0.33;96.66
64602;BME280;51013;42.630;23.192;2023-01-27T06:23:17;91334.75;;;-0.31;96.70
64602;BME280;51013;42.630;23.192;2023-01-27T06:25:48;91341.63;;;-0.26;96.22
64602;BME280;51013;42.630;23.192;2023-01-27T06:28:16;91354.22;;;-0.25;96.00
64602;BME280;51013;42.630;23.192;2023-01-27T06:30:43;91352.09;;;-0.23;95.63
64602;BME280;51013;42.630;23.192;2023-01-27T06:33:13;91349.88;;;-0.15;95.69
64602;BME280;51013;42.630;23.192;2023-01-27T06:35:42;91345.19;;;-0.13;95.02
64602;BME280;51013;42.630;23.192;2023-01-27T06:38:10;91343.06;;;-0.11;94.67
64602;BME280;51013;42.630;23.192;2023-01-27T06:40:41;91361.44;;;-0.13;94.12
64602;BME280;51013;42.630;23.192;2023-01-27T06:43:11;91331.22;;;-0.35;94.70
64602;BME280;51013;42.630;23.192;2023-01-27T06:45:39;91363.19;;;0.01;93.63
64602;BME280;51013;42.630;23.192;2023-01-27T06:48:05;91364.47;;;0.12;93.61
64602;BME280;51013;42.630;23.192;2023-01-27T06:50:35;91329.69;;;-0.13;93.62
64602;BME280;51013;42.630;23.192;2023-01-27T06:53:04;91363.13;;;0.14;93.48
64602;BME280;51013;42.630;23.192;2023-01-27T06:55:31;91363.94;;;0.24;93.33
64602;BME280;51013;42.630;23.192;2023-01-27T06:57:59;91362.75;;;0.30;93.46
64602;BME280;51013;42.630;23.192;2023-01-27T07:00:26;91357.56;;;0.30;92.20
64602;BME280;51013;42.630;23.192;2023-01-27T07:02:53;91360.34;;;0.33;92.04
64602;BME280;51013;42.630;23.192;2023-01-27T07:05:20;91355.34;;;0.37;91.44
64602;BME280;51013;42.630;23.192;2023-01-27T07:07:48;91362.19;;;0.42;91.43
64602;BME280;51013;42.630;23.192;2023-01-27T07:10:17;91357.66;;;0.47;91.27
64602;BME280;51013;42.630;23.192;2023-01-27T07:12:44;91361.63;;;0.53;90.89
64602;BME280;51013;42.630;23.192;2023-01-27T07:15:13;91348.56;;;0.58;90.70
64602;BME280;51013;42.630;23.192;2023-01-27T07:17:39;91350.22;;;0.54;90.85
64602;BME280;51013;42.630;23.192;2023-01-27T07:20:08;91334.53;;;0.42;90.90
64602;BME280;51013;42.630;23.192;2023-01-27T07:22:35;91355.88;;;0.56;91.32
64602;BME280;51013;42.630;23.192;2023-01-27T07:25:04;91364.53;;;0.52;91.34
64602;BME280;51013;42.630;23.192;2023-01-27T07:27:31;91362.41;;;0.54;91.34
64602;BME280;51013;42.630;23.192;2023-01-27T07:29:58;91365.41;;;0.47;91.40
64602;BME280;51013;42.630;23.192;2023-01-27T07:32:24;91360.25;;;0.47;92.22
64602;BME280;51013;42.630;23.192;2023-01-27T07:34:51;91358.31;;;0.62;92.39
64602;BME280;51013;42.630;23.192;2023-01-27T07:37:18;91355.44;;;0.63;91.74
64602;BME280;51013;42.630;23.192;2023-01-27T07:39:45;91349.22;;;0.64;92.08
64602;BME280;51013;42.630;23.192;2023-01-27T07:42:15;91358.78;;;0.64;92.03
64602;BME280;51013;42.630;23.192;2023-01-27T07:44:41;91350.22;;;0.54;92.29
64602;BME280;51013;42.630;23.192;2023-01-27T07:47:08;91357.56;;;0.61;92.14
64602;BME280;51013;42.630;23.192;2023-01-27T07:49:35;91371.75;;;0.72;92.18
64602;BME280;51013;42.630;23.192;2023-01-27T07:52:01;91366.97;;;0.57;92.41
64602;BME280;51013;42.630;23.192;2023-01-27T07:54:28;91362.22;;;0.50;93.38
64602;BME280;51013;42.630;23.192;2023-01-27T07:56:55;91364.88;;;0.59;93.33
64602;BME280;51013;42.630;23.192;2023-01-27T07:59:23;91340.44;;;0.43;93.13
64602;BME280;51013;42.630;23.192;2023-01-27T08:01:49;91360.25;;;0.47;93.86
64602;BME280;51013;42.630;23.192;2023-01-27T08:04:16;91345.63;;;0.43;93.80
64602;BME280;51013;42.630;23.192;2023-01-27T08:06:44;91353.00;;;0.58;93.56
64602;BME280;51013;42.630;23.192;2023-01-27T08:09:11;91359.38;;;0.60;93.18
64602;BME280;51013;42.630;23.192;2023-01-27T08:11:37;91346.91;;;0.63;92.81
64602;BME280;51013;42.630;23.192;2023-01-27T08:14:04;91339.31;;;0.57;93.69
64602;BME280;51013;42.630;23.192;2023-01-27T08:16:32;91326.69;;;0.56;93.36
64602;BME280;51013;42.630;23.192;2023-01-27T08:18:59;91357.19;;;0.45;94.07
64602;BME280;51013;42.630;23.192;2023-01-27T08:21:25;91357.09;;;0.59;93.86
64602;BME280;51013;42.630;23.192;2023-01-27T08:23:57;91345.31;;;0.44;93.81
64602;BME280;51013;42.630;23.192;2023-01-27T08:26:24;91354.47;;;0.50;94.05
64602;BME280;51013;42.630;23.192;2023-01-27T08:28:50;91350.38;;;0.49;94.06
64602;BME280;51013;42.630;23.192;2023-01-27T08:31:17;91357.53;;;0.52;94.02
64602;BME280;51013;42.630;23.192;2023-01-27T08:33:51;91360.31;;;0.65;93.57
64602;BME280;51013;42.630;23.192;2023-01-27T08:36:20;91370.03;;;0.59;93.32
64602;BME280;51013;42.630;23.192;2023-01-27T08:38:49;91336.19;;;0.38;93.08
64602;BME280;51013;42.630;23.192;2023-01-27T08:41:18;91350.38;;;0.49;92.94
64602;BME280;51013;42.630;23.192;2023-01-27T08:43:46;91365.59;;;0.51;92.92
64602;BME280;51013;42.630;23.192;2023-01-27T08:46:13;91367.53;;;0.45;93.79
64602;BME280;51013;42.630;23.192;2023-01-27T08:48:40;91362.38;;;0.45;93.50
64602;BME280;51013;42.630;23.192;2023-01-27T08:51:10;91367.47;;;0.36;92.79
64602;BME280;51013;42.630;23.192;2023-01-27T08:53:38;91369.50;;;0.48;92.06
64602;BME280;51013;42.630;23.192;2023-01-27T08:56:06;91355.00;;;0.30;92.32
64602;BME280;51013;42.630;23.192;2023-01-27T08:58:34;91377.41;;;0.43;93.02
64602;BME280;51013;42.630;23.192;2023-01-27T09:01:02;91373.66;;;0.58;92.45
64602;BME280;51013;42.630;23.192;2023-01-27T09:03:29;91341.41;;;0.15;92.73
64602;BME280;51013;42.630;23.192;2023-01-27T09:05:57;91370.84;;;0.37;92.48
64602;BME280;51013;42.630;23.192;2023-01-27T09:08:25;91368.19;;;0.28;92.95
64602;BME280;51013;42.630;23.192;2023-01-27T09:10:52;91370.31;;;0.26;93.00
64602;BME280;51013;42.630;23.192;2023-01-27T09:13:21;91354.34;;;0.24;93.58
64602;BME280;51013;42.630;23.192;2023-01-27T09:15:51;91365.69;;;0.37;93.22
64602;BME280;51013;42.630;23.192;2023-01-27T09:18:23;91373.06;;;0.30;93.68
64602;BME280;51013;42.630;23.192;2023-01-27T09:20:50;91226.16;;;-0.88;93.78
64602;BME280;51013;42.630;23.192;2023-01-27T09:23:16;91379.44;;;0.01;95.20
64602;BME280;51013;42.630;23.192;2023-01-27T09:25:44;91366.25;;;0.03;95.14
64602;BME280;51013;42.630;23.192;2023-01-27T09:28:11;91355.69;;;0.13;95.31
64602;BME280;51013;42.630;23.192;2023-01-27T09:30:41;91362.28;;;0.28;94.67
64602;BME280;51013;42.630;23.192;2023-01-27T09:33:08;91357.75;;;0.33;94.08
64602;BME280;51013;42.630;23.192;2023-01-27T09:35:39;91359.91;;;0.40;93.72
64602;BME280;51013;42.630;23.192;2023-01-27T09:38:08;91340.88;;;0.36;93.45
64602;BME280;51013;42.630;23.192;2023-01-27T09:40:47;91350.19;;;0.46;94.09
64602;BME280;51013;42.630;23.192;2023-01-27T09:43:33;91353.00;;;0.58;93.85
64602;BME280;51013;42.630;23.192;2023-01-27T09:46:10;91347.22;;;0.61;93.36
64602;BME280;51013;42.630;23.192;2023-01-27T09:48:51;91340.97;;;0.53;93.31
64602;BME280;51013;42.630;23.192;2023-01-27T09:51:30;91341.25;;;0.52;93.08
64602;BME280;51013;42.630;23.192;2023-01-27T09:54:20;91331.53;;;0.49;94.54
64602;BME280;51013;42.630;23.192;2023-01-27T09:56:58;91325.00;;;0.51;95.04
64602;BME280;51013;42.630;23.192;2023-01-27T09:59:37;91315.13;;;0.53;94.31
64602;BME280;51013;42.630;23.192;2023-01-27T10:02:15;91314.94;;;0.50;93.87
64602;BME280;51013;42.630;23.192;2023-01-27T10:05:08;91309.50;;;0.60;94.56
64602;BME280;51013;42.630;23.192;2023-01-27T10:08:03;91255.31;;;0.29;93.93
64602;BME280;51013;42.630;23.192;2023-01-27T10:10:42;91317.63;;;0.36;94.25
64602;BME280;51013;42.630;23.192;2023-01-27T10:13:26;91309.72;;;0.32;95.24
64602;BME280;51013;42.630;23.192;2023-01-27T10:16:15;91305.97;;;0.47;94.73
64602;BME280;51013;42.630;23.192;2023-01-27T10:19:00;91302.94;;;0.45;94.26
64602;BME280;51013;42.630;23.192;2023-01-27T10:21:40;91288.25;;;0.23;95.70
64602;BME280;51013;42.630;23.192;2023-01-27T10:24:18;91294.84;;;0.38;95.20
64602;BME280;51013;42.630;23.192;2023-01-27T10:26:49;91274.06;;;0.43;95.42
64602;BME280;51013;42.630;23.192;2023-01-27T10:29:23;91297.97;;;0.66;95.25
64602;BME280;51013;42.630;23.192;2023-01-27T10:31:55;91290.78;;;0.54;93.58
64602;BME280;51013;42.630;23.192;2023-01-27T10:34:27;91272.97;;;0.44;93.98
64602;BME280;51013;42.630;23.192;2023-01-27T10:37:08;91290.97;;;0.58;95.18
64602;BME280;51013;42.630;23.192;2023-01-27T10:39:46;91292.16;;;0.60;95.07
64602;BME280;51013;42.630;23.192;2023-01-27T10:42:24;91276.84;;;0.64;94.12
64602;BME280;51013;42.630;23.192;2023-01-27T10:45:14;91274.09;;;0.60;94.89
64602;BME280;51013;42.630;23.192;2023-01-27T10:47:54;91284.28;;;0.66;94.94
64602;BME280;51013;42.630;23.192;2023-01-27T10:50:27;91293.25;;;0.59;93.90
64602;BME280;51013;42.630;23.192;2023-01-27T10:53:00;91292.97;;;0.61;94.59
64602;BME280;51013;42.630;23.192;2023-01-27T10:55:35;91281.88;;;0.69;94.28
64602;BME280;51013;42.630;23.192;2023-01-27T10:58:06;91289.78;;;0.73;93.81
64602;BME280;51013;42.630;23.192;2023-01-27T11:00:41;91292.44;;;0.50;94.72
64602;BME280;51013;42.630;23.192;2023-01-27T11:03:12;91285.59;;;0.46;95.29
64602;BME280;51013;42.630;23.192;2023-01-27T11:05:44;91292.03;;;0.66;94.85
64602;BME280;51013;42.630;23.192;2023-01-27T11:08:17;91282.63;;;0.70;94.47
64602;BME280;51013;42.630;23.192;2023-01-27T11:10:47;91274.72;;;0.66;93.48
64602;BME280;51013;42.630;23.192;2023-01-27T11:13:32;91288.56;;;0.70;93.17
64602;BME280;51013;42.630;23.192;2023-01-27T11:16:03;91288.88;;;0.77;92.86
64602;BME280;51013;42.630;23.192;2023-01-27T11:18:33;91294.34;;;0.85;93.05
64602;BME280;51013;42.630;23.192;2023-01-27T11:21:03;91273.66;;;0.67;91.57
64602;BME280;51013;42.630;23.192;2023-01-27T11:23:32;91291.13;;;0.62;92.62
64602;BME280;51013;42.630;23.192;2023-01-27T11:26:04;91282.47;;;0.75;92.37
64602;BME280;51013;42.630;23.192;2023-01-27T11:28:38;91283.38;;;0.70;93.18
64602;BME280;51013;42.630;23.192;2023-01-27T11:31:19;91271.00;;;0.41;94.35
64602;BME280;51013;42.630;23.192;2023-01-27T11:33:55;91281.09;;;0.60;94.05
64602;BME280;51013;42.630;23.192;2023-01-27T11:36:26;91274.53;;;0.63;93.73
64602;BME280;51013;42.630;23.192;2023-01-27T11:38:54;91279.75;;;0.80;93.38
64602;BME280;51013;42.630;23.192;2023-01-27T11:41:22;91275.63;;;0.70;93.55
64602;BME280;51013;42.630;23.192;2023-01-27T11:43:51;91266.97;;;0.75;93.56
64602;BME280;51013;42.630;23.192;2023-01-27T11:46:21;91260.88;;;0.71;93.76
64602;BME280;51013;42.630;23.192;2023-01-27T11:48:53;91255.75;;;0.79;93.99
64602;BME280;51013;42.630;23.192;2023-01-27T11:51:22;91256.31;;;0.76;93.52
64602;BME280;51013;42.630;23.192;2023-01-27T11:54:01;91257.28;;;0.98;93.08
64602;BME280;51013;42.630;23.192;2023-01-27T11:56:31;91264.56;;;0.96;93.53
64602;BME280;51013;42.630;23.192;2023-01-27T11:59:02;91254.53;;;1.12;92.36
64602;BME280;51013;42.630;23.192;2023-01-27T12:01:39;91247.38;;;1.09;92.05
64602;BME280;51013;42.630;23.192;2023-01-27T12:04:15;91255.75;;;1.06;92.91
64602;BME280;51013;42.630;23.192;2023-01-27T12:06:46;91249.84;;;1.14;92.32
64602;BME280;51013;42.630;23.192;2023-01-27T12:09:31;91258.34;;;1.06;93.88
64602;BME280;51013;42.630;23.192;2023-01-27T12:12:21;91235.19;;;0.83;91.46
64602;BME280;51013;42.630;23.192;2023-01-27T12:14:49;91263.22;;;1.16;92.12
64602;BME280;51013;42.630;23.192;2023-01-27T12:17:24;91262.47;;;1.24;92.30
64602;BME280;51013;42.630;23.192;2023-01-27T12:19:56;91255.91;;;1.18;92.64
64602;BME280;51013;42.630;23.192;2023-01-27T12:22:27;91263.19;;;1.07;92.58
64602;BME280;51013;42.630;23.192;2023-01-27T12:24:58;91258.94;;;1.11;91.87
64602;BME280;51013;42.630;23.192;2023-01-27T12:27:28;91249.06;;;0.96;92.86
64602;BME280;51013;42.630;23.192;2023-01-27T12:29:58;91253.63;;;1.08;93.63
64602;BME280;51013;42.630;23.192;2023-01-27T12:32:33;91254.97;;;1.05;93.15
64602;BME280;51013;42.630;23.192;2023-01-27T12:35:03;91223.00;;;0.57;93.68
64602;BME280;51013;42.630;23.192;2023-01-27T12:37:36;91259.09;;;0.97;93.55
64602;BME280;51013;42.630;23.192;2023-01-27T12:40:05;91259.09;;;1.06;92.82
64602;BME280;51013;42.630;23.192;2023-01-27T12:42:36;91257.44;;;1.02;92.11
64602;BME280;51013;42.630;23.192;2023-01-27T12:45:22;91202.94;;;0.63;92.59
64602;BME280;51013;42.630;23.192;2023-01-27T12:48:00;91262.91;;;1.00;91.11
64602;BME280;51013;42.630;23.192;2023-01-27T12:50:29;91258.78;;;0.82;91.70
64602;BME280;51013;42.630;23.192;2023-01-27T12:53:10;91255.28;;;0.86;92.10
64602;BME280;51013;42.630;23.192;2023-01-27T12:55:40;91223.28;;;0.47;93.52
64602;BME280;51013;42.630;23.192;2023-01-27T12:58:27;91262.22;;;0.59;92.33
64602;BME280;51013;42.630;23.192;2023-01-27T13:00:54;91246.56;;;0.56;92.92
64602;BME280;51013;42.630;23.192;2023-01-27T13:03:27;91248.69;;;0.54;92.67
64602;BME280;51013;42.630;23.192;2023-01-27T13:05:57;91273.03;;;0.53;92.36
64602;BME280;51013;42.630;23.192;2023-01-27T13:08:27;91270.22;;;0.40;92.77
64602;BME280;51013;42.630;23.192;2023-01-27T13:10:58;91278.25;;;0.30;93.66
64602;BME280;51013;42.630;23.192;2023-01-27T13:13:29;91273.28;;;0.43;94.11